createdAt,value
2022-11-25T00:01:31.928Z,17.20
2022-11-25T00:03:59.936Z,13.47
2022-11-25T00:06:33.712Z,13.47
2022-11-25T00:09:11.213Z,19.13
2022-11-25T00:11:41.306Z,18.80
2022-11-25T00:14:14.700Z,22.37
2022-11-25T00:16:46.681Z,17.47
2022-11-25T00:19:15.019Z,19.10
2022-11-25T00:21:41.771Z,21.50
2022-11-25T00:24:08.785Z,15.53
2022-11-25T00:26:36.759Z,26.23
2022-11-25T00:29:08.267Z,27.60
2022-11-25T00:31:38.141Z,26.00
2022-11-25T00:34:05.484Z,23.13
2022-11-25T00:36:35.756Z,25.23
2022-11-25T00:39:16.209Z,21.70
2022-11-25T00:42:03.545Z,14.40
2022-11-25T00:44:38.577Z,16.67
2022-11-25T00:47:05.778Z,18.00
2022-11-25T00:49:33.210Z,14.03
2022-11-25T00:52:00.140Z,18.20
2022-11-25T00:54:26.894Z,18.27
2022-11-25T00:56:54.123Z,15.77
2022-11-25T00:59:20.927Z,19.47
2022-11-25T01:01:47.912Z,13.23
2022-11-25T01:04:15.160Z,18.70
2022-11-25T01:06:42.395Z,29.87
2022-11-25T01:09:11.478Z,23.20
2022-11-25T01:11:38.260Z,23.30
2022-11-25T01:14:05.405Z,22.17
2022-11-25T01:16:32.651Z,24.90
2022-11-25T01:19:01.022Z,24.00
2022-11-25T01:21:32.317Z,22.33
2022-11-25T01:24:01.459Z,14.47
2022-11-25T01:26:29.784Z,18.03
2022-11-25T01:29:01.980Z,15.10
2022-11-25T01:31:33.232Z,15.80
2022-11-25T01:34:08.154Z,20.20
2022-11-25T01:36:34.855Z,21.43
2022-11-25T01:39:01.835Z,22.33
2022-11-25T01:41:32.735Z,14.67
2022-11-25T01:44:19.631Z,22.83
2022-11-25T01:47:15.784Z,10.63
2022-11-25T01:49:49.283Z,20.17
2022-11-25T01:52:27.692Z,17.03
2022-11-25T01:55:08.872Z,19.60
2022-11-25T01:57:47.613Z,23.47
2022-11-25T02:00:15.499Z,17.33
2022-11-25T02:02:42.926Z,22.43
2022-11-25T02:05:13.746Z,18.23
2022-11-25T02:07:46.016Z,13.77
2022-11-25T02:10:20.736Z,18.03
2022-11-25T02:12:48.954Z,15.37
2022-11-25T02:15:17.097Z,10.23
2022-11-25T02:17:44.772Z,14.90
2022-11-25T02:20:21.576Z,13.50
2022-11-25T02:23:09.495Z,22.33
2022-11-25T02:25:41.954Z,8.77
2022-11-25T02:28:17.753Z,16.77
2022-11-25T02:30:46.347Z,18.03
2022-11-25T02:33:14.713Z,16.70
2022-11-25T02:35:44.922Z,4.33
2022-11-25T02:38:26.066Z,10.93
2022-11-25T02:41:14.316Z,21.50
2022-11-25T02:43:41.962Z,16.00
2022-11-25T02:46:21.567Z,14.57
2022-11-25T02:51:37.648Z,17.10
2022-11-25T02:54:05.731Z,19.33
2022-11-25T02:56:36.657Z,18.27
2022-11-25T02:59:04.652Z,14.40
2022-11-25T03:01:32.819Z,15.77
2022-11-25T03:04:00.047Z,19.63
2022-11-25T03:06:27.764Z,17.20
2022-11-25T03:08:54.510Z,18.17
2022-11-25T03:11:21.346Z,14.23
2022-11-25T03:13:48.093Z,9.97
2022-11-25T03:16:14.857Z,12.47
2022-11-25T03:18:41.733Z,20.30
2022-11-25T03:21:08.458Z,20.43
2022-11-25T03:23:35.211Z,10.43
2022-11-25T03:26:07.104Z,10.83
2022-11-25T03:28:33.952Z,12.63
2022-11-25T03:31:00.668Z,13.60
2022-11-25T03:33:27.387Z,15.23
2022-11-25T03:35:54.127Z,17.23
2022-11-25T03:38:20.919Z,14.07
2022-11-25T03:40:47.968Z,15.40
2022-11-25T03:43:14.749Z,12.93
2022-11-25T03:45:43.604Z,17.03
2022-11-25T03:48:10.504Z,15.17
2022-11-25T03:50:37.283Z,11.80
2022-11-25T03:53:04.052Z,24.53
2022-11-25T03:55:30.803Z,13.90
2022-11-25T03:57:57.600Z,17.47
2022-11-25T04:00:24.891Z,20.40
2022-11-25T04:02:51.839Z,17.23
2022-11-25T04:05:18.658Z,20.70
2022-11-25T04:07:45.471Z,23.13
2022-11-25T04:10:12.814Z,14.33
2022-11-25T04:12:48.585Z,17.47
2022-11-25T04:15:17.231Z,16.37
2022-11-25T04:17:44.115Z,19.33
2022-11-25T04:20:13.349Z,17.30
2022-11-25T04:22:40.741Z,25.53
2022-11-25T04:25:09.276Z,27.17
2022-11-25T04:27:36.184Z,24.87
2022-11-25T04:30:03.652Z,20.83
2022-11-25T04:32:30.484Z,24.43
2022-11-25T04:34:57.334Z,17.70
2022-11-25T04:37:24.236Z,11.90
2022-11-25T04:39:51.065Z,22.47
2022-11-25T04:42:34.437Z,11.53
2022-11-25T04:45:22.940Z,16.87
2022-11-25T04:47:51.085Z,20.80
2022-11-25T04:50:22.702Z,11.33
2022-11-25T04:52:49.974Z,17.17
2022-11-25T04:55:16.786Z,21.10
2022-11-25T04:57:43.611Z,16.33
2022-11-25T05:00:11.367Z,20.13
2022-11-25T05:02:38.596Z,19.43
2022-11-25T05:05:06.544Z,18.03
2022-11-25T05:07:33.387Z,19.57
2022-11-25T05:10:00.155Z,25.53
2022-11-25T05:12:29.202Z,14.30
2022-11-25T05:14:56.620Z,14.03
2022-11-25T05:17:27.719Z,20.30
2022-11-25T05:19:54.522Z,21.23
2022-11-25T05:22:26.233Z,19.80
2022-11-25T05:24:53.619Z,27.37
2022-11-25T05:27:22.283Z,24.07
2022-11-25T05:29:55.528Z,24.07
2022-11-25T05:32:22.804Z,20.03
2022-11-25T05:34:49.502Z,28.87
2022-11-25T05:37:19.926Z,24.50
2022-11-25T05:39:50.771Z,19.20
2022-11-25T05:42:17.507Z,21.17
2022-11-25T05:44:45.206Z,18.83
2022-11-25T05:47:11.920Z,18.53
2022-11-25T05:49:38.737Z,17.33
2022-11-25T05:52:05.860Z,21.47
2022-11-25T05:54:32.711Z,20.13
2022-11-25T05:56:59.475Z,27.70
2022-11-25T05:59:26.226Z,18.43
2022-11-25T06:01:54.416Z,18.53
2022-11-25T06:04:21.228Z,17.50
2022-11-25T06:06:48.105Z,17.13
2022-11-25T06:09:14.939Z,22.87
2022-11-25T06:11:41.746Z,21.97
2022-11-25T06:14:08.659Z,25.80
2022-11-25T06:16:35.622Z,25.97
2022-11-25T06:19:07.076Z,19.37
2022-11-25T06:21:34.064Z,23.70
2022-11-25T06:24:01.405Z,20.83
2022-11-25T06:26:28.253Z,23.93
2022-11-25T06:28:56.661Z,22.70
2022-11-25T06:31:26.201Z,19.67
2022-11-25T06:33:53.987Z,19.53
2022-11-25T06:36:22.587Z,20.50
2022-11-25T06:38:54.775Z,22.20
2022-11-25T06:41:23.936Z,18.57
2022-11-25T06:43:51.788Z,19.13
2022-11-25T06:46:24.929Z,20.73
2022-11-25T06:48:54.108Z,24.40
2022-11-25T06:51:21.267Z,24.33
2022-11-25T06:53:48.264Z,21.73
2022-11-25T06:56:20.301Z,27.33
2022-11-25T06:58:49.145Z,20.40
2022-11-25T07:01:28.540Z,20.13
2022-11-25T07:04:03.324Z,25.53
2022-11-25T07:06:32.037Z,16.50
2022-11-25T07:08:59.783Z,20.80
2022-11-25T07:11:29.790Z,22.87
2022-11-25T07:14:11.910Z,20.07
2022-11-25T07:16:43.876Z,17.90
2022-11-25T07:19:14.460Z,21.63
2022-11-25T07:21:44.448Z,20.40
2022-11-25T07:24:15.031Z,19.53
2022-11-25T07:26:44.313Z,16.43
2022-11-25T07:29:54.134Z,14.33
2022-11-25T07:32:07.128Z,14.33
2022-11-25T07:34:37.044Z,9.87
2022-11-25T07:37:03.979Z,13.17
2022-11-25T07:39:31.042Z,10.60
2022-11-25T07:41:57.881Z,11.37
2022-11-25T07:44:25.805Z,9.03
2022-11-25T07:46:53.014Z,12.03
2022-11-25T07:49:25.532Z,13.53
2022-11-25T07:51:59.781Z,11.00
2022-11-25T07:54:27.292Z,13.87
2022-11-25T07:56:54.283Z,17.43
2022-11-25T07:59:23.272Z,12.17
2022-11-25T08:01:55.708Z,16.13
2022-11-25T08:04:24.214Z,16.47
2022-11-25T08:06:53.409Z,18.57
2022-11-25T08:09:23.626Z,10.73
2022-11-25T08:11:51.362Z,15.67
2022-11-25T08:14:18.939Z,18.80
2022-11-25T08:16:46.291Z,15.70
2022-11-25T08:19:17.278Z,14.47
2022-11-25T08:21:44.945Z,16.33
2022-11-25T08:24:20.811Z,13.13
2022-11-25T08:26:48.594Z,15.23
2022-11-25T08:29:18.166Z,20.57
2022-11-25T08:31:45.757Z,15.57
2022-11-25T08:34:22.903Z,15.50
2022-11-25T08:36:50.050Z,15.93
2022-11-25T08:39:50.530Z,11.13
2022-11-25T08:42:07.929Z,16.20
2022-11-25T08:44:41.690Z,20.03
2022-11-25T08:47:09.944Z,16.17
2022-11-25T08:49:41.411Z,13.27
2022-11-25T08:52:10.477Z,12.50
2022-11-25T08:54:37.910Z,15.47
2022-11-25T08:57:05.485Z,14.07
2022-11-25T08:59:32.377Z,15.57
2022-11-25T09:01:59.312Z,17.50
2022-11-25T09:04:26.163Z,21.23
2022-11-25T09:06:53.038Z,18.60
2022-11-25T09:09:19.897Z,8.97
2022-11-25T09:11:46.879Z,19.00
2022-11-25T09:14:14.227Z,11.17
2022-11-25T09:16:41.163Z,13.17
2022-11-25T09:19:08.118Z,15.27
2022-11-25T09:21:35.003Z,14.03
2022-11-25T09:24:02.446Z,15.97
2022-11-25T09:26:35.558Z,14.63
2022-11-25T09:29:03.652Z,15.73
2022-11-25T09:31:30.613Z,16.00
2022-11-25T09:33:57.663Z,13.97
2022-11-25T09:36:24.932Z,17.47
2022-11-25T09:38:52.623Z,17.07
2022-11-25T09:42:00.090Z,18.97
2022-11-25T09:45:06.785Z,19.37
2022-11-25T09:48:42.450Z,16.60
2022-11-25T09:51:50.061Z,22.70
2022-11-25T10:01:38.134Z,21.80
2022-11-25T10:04:28.004Z,12.83
2022-11-25T10:07:07.549Z,13.77
2022-11-25T10:09:36.365Z,15.87
2022-11-25T10:12:24.083Z,20.27
2022-11-25T10:15:02.032Z,17.77
2022-11-25T10:17:29.950Z,15.53
2022-11-25T10:20:13.069Z,20.90
2022-11-25T10:22:45.843Z,14.67
2022-11-25T10:25:17.567Z,13.47
2022-11-25T10:28:21.757Z,20.97
2022-11-25T10:31:18.151Z,16.50
2022-11-25T10:33:57.019Z,14.63
2022-11-25T10:36:30.739Z,16.43
2022-11-25T10:39:24.660Z,14.07
2022-11-25T10:42:20.821Z,21.77
2022-11-25T10:44:47.792Z,15.07
2022-11-25T10:47:27.234Z,15.47
2022-11-25T10:50:09.003Z,22.57
2022-11-25T10:52:56.965Z,15.97
2022-11-25T10:55:29.874Z,10.60
2022-11-25T10:57:56.821Z,17.30
2022-11-25T11:00:32.716Z,14.63
2022-11-25T11:03:15.074Z,21.30
2022-11-25T11:05:51.497Z,16.02
2022-11-25T11:08:26.341Z,14.20
2022-11-25T11:11:12.872Z,17.20
2022-11-25T11:13:39.850Z,13.82
2022-11-25T11:16:30.197Z,12.47
2022-11-25T11:18:58.176Z,9.20
2022-11-25T11:21:33.066Z,8.77
2022-11-25T11:24:02.830Z,11.97
2022-11-25T11:26:34.134Z,13.48
2022-11-25T11:29:14.696Z,10.00
2022-11-25T11:31:49.212Z,9.07
2022-11-25T11:34:50.457Z,14.18
2022-11-25T11:37:35.401Z,13.40
2022-11-25T11:40:25.417Z,12.68
2022-11-25T11:43:05.873Z,11.23
2022-11-25T11:45:43.480Z,7.72
2022-11-25T11:48:39.590Z,7.78
2022-11-25T11:51:33.416Z,12.05
2022-11-25T11:54:18.546Z,9.73
2022-11-25T11:57:03.456Z,10.07
2022-11-25T11:59:48.985Z,7.35
2022-11-25T12:02:40.865Z,7.15
2022-11-25T12:05:10.744Z,7.20
2022-11-25T12:07:53.102Z,8.45
2022-11-25T12:10:38.573Z,12.13
2022-11-25T12:13:13.982Z,7.17
2022-11-25T12:16:13.151Z,11.27
2022-11-25T12:19:02.259Z,6.50
2022-11-25T12:22:07.456Z,7.45
2022-11-25T12:24:58.267Z,7.75
2022-11-25T12:27:36.371Z,6.13
2022-11-25T12:30:07.729Z,8.50
2022-11-25T12:32:59.175Z,5.17
2022-11-25T12:35:42.069Z,12.00
2022-11-25T12:38:21.372Z,6.50
2022-11-25T12:41:24.902Z,10.48
2022-11-25T12:44:19.222Z,10.63
2022-11-25T12:46:52.222Z,8.17
2022-11-25T12:49:29.374Z,7.55
2022-11-25T12:52:17.897Z,8.32
2022-11-25T12:54:59.698Z,5.28
2022-11-25T12:58:12.064Z,9.85
2022-11-25T13:01:35.650Z,6.83
2022-11-25T13:04:42.329Z,7.47
2022-11-25T13:07:37.777Z,8.98
2022-11-25T13:10:18.924Z,4.53
2022-11-25T13:13:39.058Z,8.50
2022-11-25T13:16:09.206Z,8.77
2022-11-25T13:18:42.845Z,6.97
2022-11-25T13:21:19.841Z,6.20
2022-11-25T13:23:53.481Z,8.23
2022-11-25T13:26:33.704Z,9.50
2022-11-25T13:29:14.992Z,6.85
2022-11-25T13:32:23.628Z,8.60
2022-11-25T13:34:50.788Z,8.38
2022-11-25T13:37:47.120Z,8.88
2022-11-25T13:40:26.393Z,12.43
2022-11-25T13:42:55.364Z,8.50
2022-11-25T13:45:34.145Z,7.63
2022-11-25T13:48:20.514Z,11.67
2022-11-25T13:51:10.262Z,9.35
2022-11-25T13:53:37.915Z,8.93
2022-11-25T13:56:33.990Z,10.00
2022-11-25T13:59:13.898Z,9.75
2022-11-25T14:01:45.628Z,7.75
2022-11-25T14:04:16.257Z,8.15
2022-11-25T14:06:58.815Z,9.13
2022-11-25T14:10:01.827Z,11.88
2022-11-25T14:12:41.834Z,11.45
2022-11-25T14:16:06.983Z,11.73
2022-11-25T14:19:21.725Z,11.52
2022-11-25T14:22:03.649Z,9.47
2022-11-25T14:24:45.659Z,9.50
2022-11-25T14:27:29.464Z,11.90
2022-11-25T14:30:07.823Z,18.85
2022-11-25T14:32:58.332Z,14.65
2022-11-25T14:35:47.092Z,9.20
2022-11-25T14:38:22.159Z,11.15
2022-11-25T14:41:00.267Z,16.00
2022-11-25T14:43:30.436Z,10.00
2022-11-25T14:46:20.990Z,10.98
2022-11-25T14:48:59.653Z,13.60
2022-11-25T14:51:34.973Z,12.33
2022-11-25T14:54:02.873Z,11.53
2022-11-25T14:56:34.181Z,12.70
2022-11-25T14:59:01.639Z,11.65
2022-11-25T15:01:31.800Z,9.30
2022-11-25T15:04:19.577Z,10.27
2022-11-25T15:07:00.777Z,11.80
2022-11-25T15:09:42.766Z,15.38
2022-11-25T15:12:17.595Z,10.03
2022-11-25T15:14:53.029Z,11.13
2022-11-25T15:17:32.782Z,15.60
2022-11-25T15:20:11.218Z,22.47
2022-11-25T15:22:38.050Z,20.55
2022-11-25T15:25:14.626Z,20.53
2022-11-25T15:27:49.258Z,10.63
2022-11-25T15:30:29.153Z,13.47
2022-11-25T15:32:57.268Z,16.90
2022-11-25T15:35:26.943Z,12.37
2022-11-25T15:37:56.695Z,11.23
2022-11-25T15:40:41.916Z,13.13
2022-11-25T15:43:29.504Z,11.30
2022-11-25T15:46:02.633Z,11.40
2022-11-25T15:49:01.289Z,9.00
2022-11-25T15:51:55.190Z,11.60
2022-11-25T15:54:46.715Z,13.40
2022-11-25T15:57:28.116Z,11.43
2022-11-25T15:59:54.806Z,12.13
2022-11-25T16:02:36.511Z,11.53
2022-11-25T16:05:38.350Z,11.65
2022-11-25T16:08:29.515Z,11.10
2022-11-25T16:11:17.039Z,17.80
2022-11-25T16:13:44.281Z,7.05
2022-11-25T16:16:30.124Z,17.20
2022-11-25T16:19:14.974Z,13.70
2022-11-25T16:21:53.085Z,13.27
2022-11-25T16:24:40.944Z,19.73
2022-11-25T16:27:17.382Z,9.00
2022-11-25T16:30:08.434Z,12.33
2022-11-25T16:45:24.111Z,18.93
2022-11-25T16:47:51.114Z,17.27
2022-11-25T16:50:19.719Z,18.45
2022-11-25T16:52:46.546Z,13.10
2022-11-25T16:55:14.204Z,9.97
2022-11-25T16:57:43.051Z,11.17
2022-11-25T17:00:17.030Z,14.33
2022-11-25T17:02:44.928Z,11.17
2022-11-25T17:05:24.758Z,10.13
2022-11-25T17:07:52.033Z,10.00
2022-11-25T17:10:22.047Z,7.17
2022-11-25T17:12:49.772Z,8.93
2022-11-25T17:15:21.029Z,21.27
2022-11-25T17:17:49.006Z,13.27
2022-11-25T17:20:24.521Z,14.07
2022-11-25T17:22:53.656Z,13.63
2022-11-25T17:25:25.801Z,11.57
2022-11-25T17:27:54.453Z,17.47
2022-11-25T17:30:27.271Z,19.63
2022-11-25T17:33:17.381Z,14.10
2022-11-25T17:35:45.350Z,13.27
2022-11-25T17:38:21.224Z,14.60
2022-11-25T17:40:49.636Z,23.50
2022-11-25T17:43:19.885Z,13.97
2022-11-25T17:45:48.878Z,15.87
2022-11-25T17:48:18.281Z,16.90
2022-11-25T17:50:46.869Z,13.93
2022-11-25T17:53:13.691Z,12.13
2022-11-25T17:55:41.742Z,16.27
2022-11-25T17:58:12.468Z,16.13
2022-11-25T18:00:43.482Z,14.83
2022-11-25T18:03:13.343Z,14.67
2022-11-25T18:05:40.214Z,14.00
2022-11-25T18:08:07.172Z,16.70
2022-11-25T18:10:34.570Z,14.17
2022-11-25T18:13:02.795Z,13.30
2022-11-25T18:15:34.677Z,15.90
2022-11-25T18:18:16.743Z,18.03
2022-11-25T18:20:44.802Z,11.27
2022-11-25T18:23:11.592Z,14.63
2022-11-25T18:25:41.071Z,14.30
2022-11-25T18:28:08.265Z,21.07
2022-11-25T18:30:38.435Z,18.33
2022-11-25T18:37:05.270Z,17.83
2022-11-25T18:39:32.045Z,16.20
2022-11-25T18:42:00.031Z,21.17
2022-11-25T18:44:31.875Z,14.47
2022-11-25T18:46:58.685Z,21.43
2022-11-25T18:49:25.447Z,11.97
2022-11-25T18:51:54.915Z,11.83
2022-11-25T18:54:27.540Z,20.87
2022-11-25T18:56:54.604Z,15.00
2022-11-25T18:59:34.061Z,13.60
2022-11-25T19:02:01.197Z,16.37
2022-11-25T19:04:28.517Z,12.17
2022-11-25T19:06:55.302Z,14.03
2022-11-25T19:09:28.343Z,16.97
2022-11-25T19:11:55.360Z,12.20
2022-11-25T19:14:34.887Z,12.37
2022-11-25T19:17:19.595Z,18.80
2022-11-25T19:19:47.206Z,14.10
2022-11-25T19:22:16.245Z,18.17
2022-11-25T19:24:44.264Z,23.60
2022-11-25T19:27:19.248Z,17.93
2022-11-25T19:29:49.348Z,15.53
2022-11-25T19:32:29.338Z,22.90
2022-11-25T19:35:06.785Z,14.20
2022-11-25T19:37:33.786Z,30.83
2022-11-25T19:40:12.895Z,29.77
2022-11-25T19:42:39.661Z,17.10
2022-11-25T19:45:07.199Z,16.20
2022-11-25T19:47:34.085Z,24.13
2022-11-25T19:50:02.197Z,16.80
2022-11-25T19:52:35.882Z,14.93
2022-11-25T19:55:21.527Z,16.97
2022-11-25T19:57:52.955Z,8.00
2022-11-25T20:00:22.355Z,8.47
2022-11-25T20:02:55.763Z,10.03
2022-11-25T20:05:32.738Z,9.13
2022-11-25T20:07:59.872Z,6.63
2022-11-25T20:10:30.627Z,6.37
2022-11-25T20:12:59.187Z,7.40
2022-11-25T20:15:26.703Z,12.90
2022-11-25T20:18:00.714Z,10.90
2022-11-25T20:20:35.282Z,11.73
2022-11-25T20:23:13.790Z,11.13
2022-11-25T20:25:45.794Z,22.93
2022-11-25T20:28:32.384Z,17.10
2022-11-25T20:30:59.696Z,18.37
2022-11-25T20:33:27.471Z,19.47
2022-11-25T20:36:06.428Z,18.67
2022-11-25T20:38:36.043Z,22.77
2022-11-25T20:41:05.906Z,24.60
2022-11-25T20:43:41.469Z,21.53
2022-11-25T20:46:21.274Z,25.97
2022-11-25T20:48:53.113Z,30.33
2022-11-25T20:51:23.447Z,25.00
2022-11-25T20:53:55.066Z,24.37
2022-11-25T20:56:26.075Z,22.67
2022-11-25T20:58:53.317Z,15.87
2022-11-25T21:01:20.260Z,12.80
2022-11-25T21:03:52.347Z,14.37
2022-11-25T21:06:29.580Z,8.53
2022-11-25T21:09:02.061Z,6.37
2022-11-25T21:11:32.862Z,7.47
2022-11-25T21:13:59.842Z,6.77
2022-11-25T21:16:29.734Z,7.77
2022-11-25T21:18:56.553Z,7.43
2022-11-25T21:21:32.960Z,8.83
2022-11-25T21:24:22.223Z,12.13
2022-11-25T21:26:50.388Z,10.53
2022-11-25T21:29:18.128Z,18.80
2022-11-25T21:31:45.494Z,16.20
2022-11-25T21:34:13.829Z,18.93
2022-11-25T21:36:44.121Z,16.17
2022-11-25T21:39:32.782Z,17.53
2022-11-25T21:42:15.271Z,17.80
2022-11-25T21:44:46.228Z,15.70
2022-11-25T21:47:16.521Z,17.40
2022-11-25T21:49:43.807Z,18.17
2022-11-25T21:52:10.927Z,21.40
2022-11-25T21:54:38.218Z,17.57
2022-11-25T21:57:05.859Z,15.43
2022-11-25T21:59:32.812Z,18.83
2022-11-25T22:01:59.605Z,20.73
2022-11-25T22:04:29.025Z,20.73
2022-11-25T22:06:55.933Z,18.87
2022-11-25T22:09:22.686Z,21.40
2022-11-25T22:11:50.451Z,24.07
2022-11-25T22:14:34.087Z,24.07
2022-11-25T22:17:05.001Z,18.27
2022-11-25T22:19:32.575Z,19.10
2022-11-25T22:21:59.457Z,19.13
2022-11-25T22:24:26.324Z,21.83
2022-11-25T22:26:57.825Z,21.40
2022-11-25T22:29:34.384Z,24.20
2022-11-25T22:32:04.193Z,24.13
2022-11-25T22:34:32.785Z,29.80
2022-11-25T22:36:59.572Z,22.53
2022-11-25T22:39:27.018Z,26.07
2022-11-25T22:42:07.672Z,25.20
2022-11-25T22:44:45.764Z,23.57
2022-11-25T22:47:46.641Z,26.53
2022-11-25T22:50:27.050Z,26.07
2022-11-25T22:52:56.669Z,24.00
2022-11-25T22:55:32.580Z,23.63
2022-11-25T22:58:01.745Z,27.97
2022-11-25T23:00:34.270Z,27.40
2022-11-25T23:03:06.605Z,31.63
2022-11-25T23:05:36.272Z,34.77
2022-11-25T23:08:16.410Z,32.60
2022-11-25T23:10:44.034Z,30.67
2022-11-25T23:13:13.303Z,29.73
2022-11-25T23:16:03.237Z,32.30
2022-11-25T23:18:42.882Z,36.10
2022-11-25T23:21:23.373Z,32.93
2022-11-25T23:23:51.204Z,26.90
2022-11-25T23:26:17.990Z,29.23
2022-11-25T23:28:44.921Z,30.47
2022-11-25T23:31:18.829Z,38.27
2022-11-25T23:33:49.654Z,33.20
2022-11-25T23:36:26.547Z,29.27
2022-11-25T23:39:02.145Z,24.40
2022-11-25T23:41:32.827Z,34.60
2022-11-25T23:44:13.397Z,29.30
2022-11-25T23:46:40.679Z,27.97
2022-11-25T23:49:18.877Z,26.60
2022-11-25T23:51:46.203Z,31.67
2022-11-25T23:54:18.117Z,28.17
2022-11-25T23:56:45.008Z,26.00
2022-11-25T23:59:16.910Z,31.10
